sensor_id;sensor_type;location;lat;lon;timestamp;pressure;altitude;pressure_sealevel;temperature;humidity
48077;BME280;33854;57.708;12.008;2023-05-20T00:00:48;102446.69;;;8.90;100.00
48077;BME280;33854;57.708;12.008;2023-05-20T00:03:17;102433.72;;;8.84;100.00
48077;BME280;33854;57.708;12.008;2023-05-20T00:05:44;102437.22;;;8.86;100.00
48077;BME280;33854;57.708;12.008;2023-05-20T00:08:10;102437.22;;;8.85;100.00
48077;BME280;33854;57.708;12.008;2023-05-20T00:10:35;102433.81;;;8.80;100.00
48077;BME280;33854;57.708;12.008;2023-05-20T00:13:01;102433.81;;;8.78;100.00
48077;BME280;33854;57.708;12.008;2023-05-20T00:15:27;102427.88;;;8.67;100.00
48077;BME280;33854;57.708;12.008;2023-05-20T00:17:53;102430.50;;;8.66;100.00
48077;BME280;33854;57.708;12.008;2023-05-20T00:20:19;102427.13;;;8.56;100.00
48077;BME280;33854;57.708;12.008;2023-05-20T00:22:45;102423.72;;;8.51;100.00
48077;BME280;33854;57.708;12.008;2023-05-20T00:25:10;102422.84;;;8.52;100.00
48077;BME280;33854;57.708;12.008;2023-05-20T00:27:39;102421.13;;;8.51;100.00
48077;BME280;33854;57.708;12.008;2023-05-20T00:30:05;102431.59;;;8.45;100.00
48077;BME280;33854;57.708;12.008;2023-05-20T00:32:30;102435.03;;;8.47;100.00
48077;BME280;33854;57.708;12.008;2023-05-20T00:35:00;102434.19;;;8.45;100.00
48077;BME280;33854;57.708;12.008;2023-05-20T00:37:25;102430.84;;;8.34;100.00
48077;BME280;33854;57.708;12.008;2023-05-20T00:39:51;102429.94;;;8.38;100.00
48077;BME280;33854;57.708;12.008;2023-05-20T00:42:23;102430.81;;;8.35;100.00
48077;BME280;33854;57.708;12.008;2023-05-20T00:44:49;102423.91;;;8.34;100.00
48077;BME280;33854;57.708;12.008;2023-05-20T00:47:16;102426.53;;;8.30;100.00
48077;BME280;33854;57.708;12.008;2023-05-20T00:49:47;102430.91;;;8.29;100.00
48077;BME280;33854;57.708;12.008;2023-05-20T00:52:14;102423.09;;;8.26;100.00
48077;BME280;33854;57.708;12.008;2023-05-20T00:54:40;102422.25;;;8.21;100.00
48077;BME280;33854;57.708;12.008;2023-05-20T00:57:06;102418.03;;;8.11;100.00
48077;BME280;33854;57.708;12.008;2023-05-20T00:59:35;102423.25;;;8.08;100.00
48077;BME280;33854;57.708;12.008;2023-05-20T01:02:02;102428.44;;;8.07;100.00
48077;BME280;33854;57.708;12.008;2023-05-20T01:04:28;102442.38;;;7.99;100.00
48077;BME280;33854;57.708;12.008;2023-05-20T01:06:54;102425.06;;;7.95;100.00
48077;BME280;33854;57.708;12.008;2023-05-20T01:09:20;102437.22;;;7.96;100.00
48077;BME280;33854;57.708;12.008;2023-05-20T01:11:55;102438.97;;;7.94;100.00
48077;BME280;33854;57.708;12.008;2023-05-20T01:14:26;102435.53;;;7.91;100.00
48077;BME280;33854;57.708;12.008;2023-05-20T01:16:54;102433.84;;;7.84;100.00
48077;BME280;33854;57.708;12.008;2023-05-20T01:19:41;102411.41;;;7.69;100.00
48077;BME280;33854;57.708;12.008;2023-05-20T01:22:12;102420.94;;;7.75;100.00
48077;BME280;33854;57.708;12.008;2023-05-20T01:24:42;102413.16;;;7.75;100.00
48077;BME280;33854;57.708;12.008;2023-05-20T01:27:11;102408.75;;;7.80;100.00
48077;BME280;33854;57.708;12.008;2023-05-20T01:29:38;102407.03;;;7.80;100.00
48077;BME280;33854;57.708;12.008;2023-05-20T01:32:16;102413.94;;;7.78;100.00
48077;BME280;33854;57.708;12.008;2023-05-20T01:34:44;102419.19;;;7.75;100.00
48077;BME280;33854;57.708;12.008;2023-05-20T01:37:12;102419.19;;;7.74;100.00
48077;BME280;33854;57.708;12.008;2023-05-20T01:39:38;102424.41;;;7.72;100.00
48077;BME280;33854;57.708;12.008;2023-05-20T01:42:09;102426.16;;;7.70;100.00
48077;BME280;33854;57.708;12.008;2023-05-20T01:44:36;102428.78;;;7.64;100.00
48077;BME280;33854;57.708;12.008;2023-05-20T01:47:01;102430.56;;;7.59;100.00
48077;BME280;33854;57.708;12.008;2023-05-20T01:49:27;102432.28;;;7.62;100.00
48077;BME280;33854;57.708;12.008;2023-05-20T01:51:53;102428.84;;;7.55;100.00
48077;BME280;33854;57.708;12.008;2023-05-20T01:54:18;102427.16;;;7.46;100.00
48077;BME280;33854;57.708;12.008;2023-05-20T01:56:45;102422.91;;;7.39;100.00
48077;BME280;33854;57.708;12.008;2023-05-20T01:59:10;102428.84;;;7.55;100.00
48077;BME280;33854;57.708;12.008;2023-05-20T02:01:36;102426.25;;;7.60;100.00
48077;BME280;33854;57.708;12.008;2023-05-20T02:04:01;102427.13;;;7.57;100.00
48077;BME280;33854;57.708;12.008;2023-05-20T02:06:27;102418.50;;;7.49;100.00
48077;BME280;33854;57.708;12.008;2023-05-20T02:08:52;102421.94;;;7.54;100.00
48077;BME280;33854;57.708;12.008;2023-05-20T02:11:18;102419.34;;;7.54;100.00
48077;BME280;33854;57.708;12.008;2023-05-20T02:13:43;102411.56;;;7.54;100.00
48077;BME280;33854;57.708;12.008;2023-05-20T02:16:09;102394.28;;;7.44;100.00
48077;BME280;33854;57.708;12.008;2023-05-20T02:18:34;102404.63;;;7.50;100.00
48077;BME280;33854;57.708;12.008;2023-05-20T02:21:03;102402.94;;;7.47;100.00
48077;BME280;33854;57.708;12.008;2023-05-20T02:23:32;102405.53;;;7.44;100.00
48077;BME280;33854;57.708;12.008;2023-05-20T02:25:58;102403.00;;;7.38;100.00
48077;BME280;33854;57.708;12.008;2023-05-20T02:28:23;102398.69;;;7.36;100.00
48077;BME280;33854;57.708;12.008;2023-05-20T02:30:49;102396.13;;;7.30;100.00
48077;BME280;33854;57.708;12.008;2023-05-20T02:33:18;102397.06;;;7.18;100.00
48077;BME280;33854;57.708;12.008;2023-05-20T02:35:44;102415.25;;;7.17;100.00
48077;BME280;33854;57.708;12.008;2023-05-20T02:38:11;102410.94;;;7.17;100.00
48077;BME280;33854;57.708;12.008;2023-05-20T02:40:36;102405.72;;;7.17;100.00
48077;BME280;33854;57.708;12.008;2023-05-20T02:43:02;102412.63;;;7.18;100.00
48077;BME280;33854;57.708;12.008;2023-05-20T02:45:27;102408.31;;;7.19;100.00
48077;BME280;33854;57.708;12.008;2023-05-20T02:47:53;102415.25;;;7.12;100.00
48077;BME280;33854;57.708;12.008;2023-05-20T02:50:18;102416.16;;;7.11;100.00
48077;BME280;33854;57.708;12.008;2023-05-20T02:52:44;102418.75;;;7.08;100.00
48077;BME280;33854;57.708;12.008;2023-05-20T02:55:10;102419.63;;;7.07;100.00
48077;BME280;33854;57.708;12.008;2023-05-20T02:57:35;102419.63;;;7.04;100.00
48077;BME280;33854;57.708;12.008;2023-05-20T03:00:04;102398.94;;;6.87;100.00
48077;BME280;33854;57.708;12.008;2023-05-20T03:02:31;102423.13;;;6.97;100.00
48077;BME280;33854;57.708;12.008;2023-05-20T03:04:57;102425.72;;;7.00;100.00
48077;BME280;33854;57.708;12.008;2023-05-20T03:07:22;102423.13;;;7.00;100.00
48077;BME280;33854;57.708;12.008;2023-05-20T03:09:48;102418.75;;;7.07;100.00
48077;BME280;33854;57.708;12.008;2023-05-20T03:12:13;102411.81;;;7.07;100.00
48077;BME280;33854;57.708;12.008;2023-05-20T03:14:39;102423.03;;;7.17;100.00
48077;BME280;33854;57.708;12.008;2023-05-20T03:17:04;102431.69;;;7.16;100.00
48077;BME280;33854;57.708;12.008;2023-05-20T03:19:30;102438.63;;;7.17;100.00
48077;BME280;33854;57.708;12.008;2023-05-20T03:21:55;102442.94;;;7.19;100.00
48077;BME280;33854;57.708;12.008;2023-05-20T03:24:22;102451.59;;;7.20;100.00
48077;BME280;33854;57.708;12.008;2023-05-20T03:26:48;102442.06;;;7.16;100.00
48077;BME280;33854;57.708;12.008;2023-05-20T03:29:13;102450.69;;;7.22;100.00
48077;BME280;33854;57.708;12.008;2023-05-20T03:31:39;102446.38;;;7.21;100.00
48077;BME280;33854;57.708;12.008;2023-05-20T03:34:05;102455.84;;;7.27;100.00
48077;BME280;33854;57.708;12.008;2023-05-20T03:36:30;102459.28;;;7.32;100.00
48077;BME280;33854;57.708;12.008;2023-05-20T03:38:56;102449.75;;;7.35;100.00
48077;BME280;33854;57.708;12.008;2023-05-20T03:41:21;102446.28;;;7.39;100.00
48077;BME280;33854;57.708;12.008;2023-05-20T03:43:47;102454.91;;;7.46;100.00
48077;BME280;33854;57.708;12.008;2023-05-20T03:46:12;102454.94;;;7.43;100.00
48077;BME280;33854;57.708;12.008;2023-05-20T03:48:37;102467.03;;;7.42;100.00
48077;BME280;33854;57.708;12.008;2023-05-20T03:51:03;102452.31;;;7.44;100.00
48077;BME280;33854;57.708;12.008;2023-05-20T03:53:28;102455.72;;;7.50;100.00
48077;BME280;33854;57.708;12.008;2023-05-20T03:55:54;102463.53;;;7.48;100.00
48077;BME280;33854;57.708;12.008;2023-05-20T03:58:19;102462.69;;;7.47;100.00
48077;BME280;33854;57.708;12.008;2023-05-20T04:00:46;102465.25;;;7.52;100.00
48077;BME280;33854;57.708;12.008;2023-05-20T04:03:12;102468.72;;;7.54;100.00
48077;BME280;33854;57.708;12.008;2023-05-20T04:05:37;102464.34;;;7.59;100.00
48077;BME280;33854;57.708;12.008;2023-05-20T04:08:03;102474.69;;;7.67;100.00
48077;BME280;33854;57.708;12.008;2023-05-20T04:10:29;102471.16;;;7.77;100.00
48077;BME280;33854;57.708;12.008;2023-05-20T04:12:56;102469.28;;;7.92;100.00
48077;BME280;33854;57.708;12.008;2023-05-20T04:15:22;102472.66;;;8.07;100.00
48077;BME280;33854;57.708;12.008;2023-05-20T04:17:49;102482.94;;;8.23;100.00
48077;BME280;33854;57.708;12.008;2023-05-20T04:20:17;102483.69;;;8.36;100.00
48077;BME280;33854;57.708;12.008;2023-05-20T04:22:43;102491.38;;;8.49;100.00
48077;BME280;33854;57.708;12.008;2023-05-20T04:25:09;102496.53;;;8.57;100.00
48077;BME280;33854;57.708;12.008;2023-05-20T04:27:35;102488.66;;;8.62;100.00
48077;BME280;33854;57.708;12.008;2023-05-20T04:30:02;102498.16;;;8.64;100.00
48077;BME280;33854;57.708;12.008;2023-05-20T04:32:28;102498.13;;;8.69;100.00
48077;BME280;33854;57.708;12.008;2023-05-20T04:34:54;102504.09;;;8.78;100.00
48077;BME280;33854;57.708;12.008;2023-05-20T04:37:20;102508.34;;;8.87;100.00
48077;BME280;33854;57.708;12.008;2023-05-20T04:39:47;102502.19;;;8.94;100.00
48077;BME280;33854;57.708;12.008;2023-05-20T04:42:14;102513.38;;;9.03;100.00
48077;BME280;33854;57.708;12.008;2023-05-20T04:44:42;102509.00;;;9.05;100.00
48077;BME280;33854;57.708;12.008;2023-05-20T04:47:10;102519.28;;;9.16;100.00
48077;BME280;33854;57.708;12.008;2023-05-20T04:49:36;102520.09;;;9.23;100.00
48077;BME280;33854;57.708;12.008;2023-05-20T04:52:02;102526.06;;;9.31;100.00
48077;BME280;33854;57.708;12.008;2023-05-20T04:54:29;102529.44;;;9.39;100.00
48077;BME280;33854;57.708;12.008;2023-05-20T04:56:55;102526.72;;;9.49;100.00
48077;BME280;33854;57.708;12.008;2023-05-20T04:59:21;102523.19;;;9.52;100.00
48077;BME280;33854;57.708;12.008;2023-05-20T05:01:46;102517.03;;;9.56;100.00
48077;BME280;33854;57.708;12.008;2023-05-20T05:04:12;102536.81;;;9.72;100.00
48077;BME280;33854;57.708;12.008;2023-05-20T05:06:37;102534.19;;;9.75;100.00
48077;BME280;33854;57.708;12.008;2023-05-20T05:09:03;102541.88;;;9.84;100.00
48077;BME280;33854;57.708;12.008;2023-05-20T05:11:29;102538.28;;;9.93;100.00
48077;BME280;33854;57.708;12.008;2023-05-20T05:13:55;102537.28;;;10.01;100.00
48077;BME280;33854;57.708;12.008;2023-05-20T05:16:21;102537.09;;;10.10;100.00
48077;BME280;33854;57.708;12.008;2023-05-20T05:18:46;102539.66;;;10.18;100.00
48077;BME280;33854;57.708;12.008;2023-05-20T05:21:12;102545.59;;;10.24;100.00
48077;BME280;33854;57.708;12.008;2023-05-20T05:23:37;102555.06;;;10.33;100.00
48077;BME280;33854;57.708;12.008;2023-05-20T05:26:03;102549.75;;;10.38;100.00
48077;BME280;33854;57.708;12.008;2023-05-20T05:28:28;102548.69;;;10.48;100.00
48077;BME280;33854;57.708;12.008;2023-05-20T05:30:54;102548.59;;;10.55;100.00
48077;BME280;33854;57.708;12.008;2023-05-20T05:33:23;102553.66;;;10.63;100.00
48077;BME280;33854;57.708;12.008;2023-05-20T05:35:49;102548.41;;;10.66;100.00
48077;BME280;33854;57.708;12.008;2023-05-20T05:38:15;102556.94;;;10.75;100.00
48077;BME280;33854;57.708;12.008;2023-05-20T05:40:40;102551.56;;;10.83;100.00
48077;BME280;33854;57.708;12.008;2023-05-20T05:43:06;102538.44;;;10.88;100.00
48077;BME280;33854;57.708;12.008;2023-05-20T05:45:32;102540.84;;;10.98;100.00
48077;BME280;33854;57.708;12.008;2023-05-20T05:47:57;102523.31;;;11.03;100.00
48077;BME280;33854;57.708;12.008;2023-05-20T05:50:23;102542.91;;;11.25;100.00
48077;BME280;33854;57.708;12.008;2023-05-20T05:52:48;102547.13;;;11.32;100.00
48077;BME280;33854;57.708;12.008;2023-05-20T05:55:14;102551.25;;;11.44;100.00
48077;BME280;33854;57.708;12.008;2023-05-20T05:57:39;102554.50;;;11.55;100.00
48077;BME280;33854;57.708;12.008;2023-05-20T06:00:05;102554.28;;;11.64;100.00
48077;BME280;33854;57.708;12.008;2023-05-20T06:02:31;102555.06;;;11.71;100.00
48077;BME280;33854;57.708;12.008;2023-05-20T06:05:01;102554.81;;;11.81;100.00
48077;BME280;33854;57.708;12.008;2023-05-20T06:07:27;102553.00;;;11.85;100.00
48077;BME280;33854;57.708;12.008;2023-05-20T06:09:52;102554.44;;;11.98;100.00
48077;BME280;33854;57.708;12.008;2023-05-20T06:12:18;102562.88;;;12.09;100.00
48077;BME280;33854;57.708;12.008;2023-05-20T06:14:43;102554.94;;;12.14;100.00
48077;BME280;33854;57.708;12.008;2023-05-20T06:17:08;102562.63;;;12.21;100.00
48077;BME280;33854;57.708;12.008;2023-05-20T06:19:34;102566.63;;;12.34;100.00
48077;BME280;33854;57.708;12.008;2023-05-20T06:21:59;102551.78;;;12.36;100.00
48077;BME280;33854;57.708;12.008;2023-05-20T06:24:25;102565.38;;;12.50;100.00
48077;BME280;33854;57.708;12.008;2023-05-20T06:26:50;102561.69;;;12.57;100.00
48077;BME280;33854;57.708;12.008;2023-05-20T06:29:16;102558.03;;;12.65;100.00
48077;BME280;33854;57.708;12.008;2023-05-20T06:31:41;102551.63;;;12.76;100.00
48077;BME280;33854;57.708;12.008;2023-05-20T06:34:07;102557.66;;;12.80;100.00
48077;BME280;33854;57.708;12.008;2023-05-20T06:36:32;102553.06;;;12.88;100.00
48077;BME280;33854;57.708;12.008;2023-05-20T06:38:58;102546.72;;;12.95;100.00
48077;BME280;33854;57.708;12.008;2023-05-20T06:41:23;102550.78;;;13.06;100.00
48077;BME280;33854;57.708;12.008;2023-05-20T06:43:50;102549.63;;;13.18;100.00
48077;BME280;33854;57.708;12.008;2023-05-20T06:46:16;102544.22;;;13.24;100.00
48077;BME280;33854;57.708;12.008;2023-05-20T06:48:41;102541.25;;;13.36;100.00
48077;BME280;33854;57.708;12.008;2023-05-20T06:51:07;102540.91;;;13.47;100.00
48077;BME280;33854;57.708;12.008;2023-05-20T06:53:35;102545.72;;;13.62;100.00
48077;BME280;33854;57.708;12.008;2023-05-20T06:56:01;102543.56;;;13.75;100.00
48077;BME280;33854;57.708;12.008;2023-05-20T06:58:27;102545.72;;;13.90;100.00
48077;BME280;33854;57.708;12.008;2023-05-20T07:00:53;102546.97;;;14.06;100.00
48077;BME280;33854;57.708;12.008;2023-05-20T07:03:18;102545.63;;;14.20;100.00
48077;BME280;33854;57.708;12.008;2023-05-20T07:05:44;102547.78;;;14.36;100.00
48077;BME280;33854;57.708;12.008;2023-05-20T07:08:09;102550.09;;;14.45;100.00
48077;BME280;33854;57.708;12.008;2023-05-20T07:10:35;102535.69;;;14.56;100.00
48077;BME280;33854;57.708;12.008;2023-05-20T07:13:01;102543.19;;;14.67;100.00
48077;BME280;33854;57.708;12.008;2023-05-20T07:15:26;102533.13;;;14.79;100.00
48077;BME280;33854;57.708;12.008;2023-05-20T07:17:52;102537.91;;;14.93;100.00
48077;BME280;33854;57.708;12.008;2023-05-20T07:20:17;102533.09;;;15.04;100.00
48077;BME280;33854;57.708;12.008;2023-05-20T07:22:43;102533.56;;;15.15;100.00
48077;BME280;33854;57.708;12.008;2023-05-20T07:25:08;102531.81;;;15.16;100.00
48077;BME280;33854;57.708;12.008;2023-05-20T07:27:34;102520.19;;;15.21;100.00
48077;BME280;33854;57.708;12.008;2023-05-20T07:30:00;102524.84;;;15.38;100.00
48077;BME280;33854;57.708;12.008;2023-05-20T07:32:25;102529.81;;;15.46;100.00
48077;BME280;33854;57.708;12.008;2023-05-20T07:34:50;102522.41;;;15.57;100.00
48077;BME280;33854;57.708;12.008;2023-05-20T07:37:16;102525.53;;;15.66;100.00
48077;BME280;33854;57.708;12.008;2023-05-20T07:39:41;102521.25;;;15.85;100.00
48077;BME280;33854;57.708;12.008;2023-05-20T07:42:07;102520.13;;;15.92;100.00
48077;BME280;33854;57.708;12.008;2023-05-20T07:44:32;102518.06;;;15.99;100.00
48077;BME280;33854;57.708;12.008;2023-05-20T07:46:58;102521.94;;;16.12;100.00
48077;BME280;33854;57.708;12.008;2023-05-20T07:49:23;102513.28;;;16.09;100.00
48077;BME280;33854;57.708;12.008;2023-05-20T07:51:49;102505.63;;;16.03;100.00
48077;BME280;33854;57.708;12.008;2023-05-20T07:54:15;102512.94;;;16.18;100.00
48077;BME280;33854;57.708;12.008;2023-05-20T07:56:40;102512.69;;;16.44;100.00
48077;BME280;33854;57.708;12.008;2023-05-20T07:59:05;102514.03;;;16.54;100.00
48077;BME280;33854;57.708;12.008;2023-05-20T08:01:31;102515.44;;;16.63;100.00
48077;BME280;33854;57.708;12.008;2023-05-20T08:03:57;102521.91;;;16.76;100.00
48077;BME280;33854;57.708;12.008;2023-05-20T08:06:22;102518.00;;;16.84;100.00
48077;BME280;33854;57.708;12.008;2023-05-20T08:08:51;102503.09;;;16.83;100.00
48077;BME280;33854;57.708;12.008;2023-05-20T08:11:18;102494.13;;;16.87;100.00
48077;BME280;33854;57.708;12.008;2023-05-20T08:13:43;102507.47;;;17.03;100.00
48077;BME280;33854;57.708;12.008;2023-05-20T08:16:09;102502.56;;;17.14;100.00
48077;BME280;33854;57.708;12.008;2023-05-20T08:18:34;102484.78;;;16.99;100.00
48077;BME280;33854;57.708;12.008;2023-05-20T08:21:04;102501.97;;;17.07;100.00
48077;BME280;33854;57.708;12.008;2023-05-20T08:23:32;102499.56;;;17.03;100.00
48077;BME280;33854;57.708;12.008;2023-05-20T08:25:58;102499.06;;;17.14;100.00
48077;BME280;33854;57.708;12.008;2023-05-20T08:28:29;102500.88;;;17.32;100.00
48077;BME280;33854;57.708;12.008;2023-05-20T08:30:55;102498.81;;;17.38;100.00
48077;BME280;33854;57.708;12.008;2023-05-20T08:33:22;102488.81;;;17.45;100.00
48077;BME280;33854;57.708;12.008;2023-05-20T08:35:47;102486.84;;;17.50;100.00
48077;BME280;33854;57.708;12.008;2023-05-20T08:38:13;102500.13;;;17.67;100.00
48077;BME280;33854;57.708;12.008;2023-05-20T08:40:39;102495.31;;;17.75;100.00
48077;BME280;33854;57.708;12.008;2023-05-20T08:43:04;102492.88;;;17.89;100.00
48077;BME280;33854;57.708;12.008;2023-05-20T08:45:33;102499.34;;;18.01;100.00
48077;BME280;33854;57.708;12.008;2023-05-20T08:48:02;102494.47;;;18.10;100.00
48077;BME280;33854;57.708;12.008;2023-05-20T08:50:29;102476.66;;;18.14;100.00
48077;BME280;33854;57.708;12.008;2023-05-20T08:52:55;102478.78;;;18.25;100.00
48077;BME280;33854;57.708;12.008;2023-05-20T08:55:45;102468.66;;;18.33;100.00
48077;BME280;33854;57.708;12.008;2023-05-20T08:58:11;102482.38;;;18.58;100.00
48077;BME280;33854;57.708;12.008;2023-05-20T09:00:36;102477.81;;;18.77;100.00
48077;BME280;33854;57.708;12.008;2023-05-20T09:03:03;102482.63;;;18.86;100.00
48077;BME280;33854;57.708;12.008;2023-05-20T09:05:29;102477.94;;;18.91;100.00
48077;BME280;33854;57.708;12.008;2023-05-20T09:08:05;102469.41;;;18.86;100.00
48077;BME280;33854;57.708;12.008;2023-05-20T09:10:31;102477.72;;;18.96;100.00
48077;BME280;33854;57.708;12.008;2023-05-20T09:12:58;102466.88;;;19.00;100.00
48077;BME280;33854;57.708;12.008;2023-05-20T09:15:24;102461.50;;;19.02;100.00
48077;BME280;33854;57.708;12.008;2023-05-20T09:17:49;102470.41;;;19.16;100.00
48077;BME280;33854;57.708;12.008;2023-05-20T09:20:15;102453.84;;;19.13;100.00
48077;BME280;33854;57.708;12.008;2023-05-20T09:22:40;102456.91;;;19.05;100.00
48077;BME280;33854;57.708;12.008;2023-05-20T09:25:06;102454.03;;;19.25;100.00
48077;BME280;33854;57.708;12.008;2023-05-20T09:27:32;102457.06;;;19.18;100.00
48077;BME280;33854;57.708;12.008;2023-05-20T09:29:58;102456.41;;;19.30;100.00
48077;BME280;33854;57.708;12.008;2023-05-20T09:32:23;102454.06;;;19.57;100.00
48077;BME280;33854;57.708;12.008;2023-05-20T09:34:51;102444.28;;;19.73;100.00
48077;BME280;33854;57.708;12.008;2023-05-20T09:37:17;102444.63;;;19.67;100.00
48077;BME280;33854;57.708;12.008;2023-05-20T09:39:55;102453.88;;;19.60;100.00
48077;BME280;33854;57.708;12.008;2023-05-20T09:42:43;102454.66;;;19.62;100.00
48077;BME280;33854;57.708;12.008;2023-05-20T09:45:12;102449.50;;;19.27;100.00
48077;BME280;33854;57.708;12.008;2023-05-20T09:47:38;102452.72;;;19.32;100.00
48077;BME280;33854;57.708;12.008;2023-05-20T09:50:07;102443.69;;;19.37;100.00
48077;BME280;33854;57.708;12.008;2023-05-20T09:52:34;102439.63;;;19.92;100.00
48077;BME280;33854;57.708;12.008;2023-05-20T09:55:02;102438.47;;;20.12;100.00
48077;BME280;33854;57.708;12.008;2023-05-20T09:57:32;102435.63;;;20.30;100.00
48077;BME280;33854;57.708;12.008;2023-05-20T09:59:58;102438.75;;;20.07;100.00
48077;BME280;33854;57.708;12.008;2023-05-20T10:02:23;102431.50;;;19.95;100.00
48077;BME280;33854;57.708;12.008;2023-05-20T10:04:51;102432.88;;;19.57;100.00
48077;BME280;33854;57.708;12.008;2023-05-20T10:18:36;102421.91;;;19.16;100.00
48077;BME280;33854;57.708;12.008;2023-05-20T10:21:14;102428.09;;;19.48;100.00
48077;BME280;33854;57.708;12.008;2023-05-20T10:23:40;102424.59;;;19.63;100.00
48077;BME280;33854;57.708;12.008;2023-05-20T10:26:05;102427.09;;;20.10;100.00
48077;BME280;33854;57.708;12.008;2023-05-20T10:28:33;102428.56;;;19.85;100.00
48077;BME280;33854;57.708;12.008;2023-05-20T10:31:14;102422.63;;;19.96;100.00
48077;BME280;33854;57.708;12.008;2023-05-20T10:33:42;102423.00;;;19.74;100.00
48077;BME280;33854;57.708;12.008;2023-05-20T10:36:08;102429.03;;;19.92;100.00
48077;BME280;33854;57.708;12.008;2023-05-20T10:38:33;102431.63;;;19.78;100.00
48077;BME280;33854;57.708;12.008;2023-05-20T10:41:08;102438.69;;;19.48;100.00
48077;BME280;33854;57.708;12.008;2023-05-20T10:43:37;102423.97;;;19.26;100.00
48077;BME280;33854;57.708;12.008;2023-05-20T10:46:02;102423.78;;;19.29;100.00
48077;BME280;33854;57.708;12.008;2023-05-20T10:48:30;102418.66;;;19.58;100.00
48077;BME280;33854;57.708;12.008;2023-05-20T10:51:00;102406.19;;;20.05;100.00
48077;BME280;33854;57.708;12.008;2023-05-20T10:53:37;102408.75;;;20.21;100.00
48077;BME280;33854;57.708;12.008;2023-05-20T10:56:02;102426.69;;;19.25;100.00
48077;BME280;33854;57.708;12.008;2023-05-20T10:58:35;102426.63;;;18.78;100.00
48077;BME280;33854;57.708;12.008;2023-05-20T11:01:01;102423.28;;;18.59;100.00
48077;BME280;33854;57.708;12.008;2023-05-20T11:03:28;102422.41;;;18.41;100.00
48077;BME280;33854;57.708;12.008;2023-05-20T11:05:53;102417.44;;;18.01;100.00
48077;BME280;33854;57.708;12.008;2023-05-20T11:08:19;102431.63;;;17.64;100.00
48077;BME280;33854;57.708;12.008;2023-05-20T11:10:45;102433.31;;;17.65;100.00
48077;BME280;33854;57.708;12.008;2023-05-20T11:13:12;102424.78;;;17.77;100.00
48077;BME280;33854;57.708;12.008;2023-05-20T11:15:39;102428.78;;;18.03;100.00
48077;BME280;33854;57.708;12.008;2023-05-20T11:18:04;102416.41;;;18.38;100.00
48077;BME280;33854;57.708;12.008;2023-05-20T11:20:30;102410.13;;;18.40;100.00
48077;BME280;33854;57.708;12.008;2023-05-20T11:22:59;102417.34;;;18.19;100.00
48077;BME280;33854;57.708;12.008;2023-05-20T11:25:26;102411.00;;;18.23;100.00
48077;BME280;33854;57.708;12.008;2023-05-20T11:27:52;102418.00;;;18.25;100.00
48077;BME280;33854;57.708;12.008;2023-05-20T11:30:18;102417.84;;;18.28;100.00
48077;BME280;33854;57.708;12.008;2023-05-20T11:33:01;102400.72;;;18.35;100.00
48077;BME280;33854;57.708;12.008;2023-05-20T11:35:28;102403.75;;;18.61;100.00
48077;BME280;33854;57.708;12.008;2023-05-20T11:38:02;102391.13;;;18.16;100.00
48077;BME280;33854;57.708;12.008;2023-05-20T11:40:30;102393.22;;;18.43;100.00
48077;BME280;33854;57.708;12.008;2023-05-20T11:42:58;102405.38;;;18.47;100.00
48077;BME280;33854;57.708;12.008;2023-05-20T11:45:24;102389.75;;;18.59;100.00
48077;BME280;33854;57.708;12.008;2023-05-20T11:47:59;102382.78;;;18.90;100.00
48077;BME280;33854;57.708;12.008;2023-05-20T11:50:25;102403.00;;;18.75;100.00
48077;BME280;33854;57.708;12.008;2023-05-20T11:52:57;102390.84;;;18.88;100.00
48077;BME280;33854;57.708;12.008;2023-05-20T11:55:23;102377.50;;;19.37;100.00
48077;BME280;33854;57.708;12.008;2023-05-20T11:57:50;102391.00;;;19.16;100.00
48077;BME280;33854;57.708;12.008;2023-05-20T12:00:16;102377.53;;;19.82;100.00
48077;BME280;33854;57.708;12.008;2023-05-20T12:02:42;102359.34;;;19.76;100.00
48077;BME280;33854;57.708;12.008;2023-05-20T12:05:08;102372.63;;;19.90;100.00
48077;BME280;33854;57.708;12.008;2023-05-20T12:07:34;102349.84;;;20.02;100.00
48077;BME280;33854;57.708;12.008;2023-05-20T12:10:01;102367.09;;;20.09;100.00
48077;BME280;33854;57.708;12.008;2023-05-20T12:12:27;102368.78;;;20.39;100.00
48077;BME280;33854;57.708;12.008;2023-05-20T12:14:52;102360.13;;;19.92;100.00
48077;BME280;33854;57.708;12.008;2023-05-20T12:17:18;102366.25;;;19.02;100.00
48077;BME280;33854;57.708;12.008;2023-05-20T12:19:43;102367.50;;;18.46;100.00
48077;BME280;33854;57.708;12.008;2023-05-20T12:22:09;102355.84;;;18.99;100.00
48077;BME280;33854;57.708;12.008;2023-05-20T12:24:34;102370.81;;;19.61;100.00
48077;BME280;33854;57.708;12.008;2023-05-20T12:27:00;102365.16;;;20.40;100.00
48077;BME280;33854;57.708;12.008;2023-05-20T12:29:27;102364.88;;;20.59;100.00
48077;BME280;33854;57.708;12.008;2023-05-20T12:31:53;102363.53;;;20.94;100.00
48077;BME280;33854;57.708;12.008;2023-05-20T12:34:18;102374.41;;;21.04;100.00
48077;BME280;33854;57.708;12.008;2023-05-20T12:36:44;102359.94;;;21.36;100.00
48077;BME280;33854;57.708;12.008;2023-05-20T12:39:09;102355.69;;;20.79;100.00
48077;BME280;33854;57.708;12.008;2023-05-20T12:41:35;102359.47;;;21.30;100.00